Renfrew, Pennsylvania
Current Conditions -  °F | °C
As of 5:15 AM on Monday 26 Jan 2015 (Local Time) from KBTP Reporting Station
Overcast Overcast  
Wind Chill: -10°   Ceiling: 1500
Heat Index: -4°   Visibility: 9mi
Dew Point: -6°   Wind: 13mph
Humidity: 86%   Direction: 60°ENE
Pressure: 29.71"   Gusts: 20mph
Location:  40.81°N, 79.96°W
Report Text: KBTP 261015Z AUTO 06011G17KT 9SM OVC015 M04/M06 A2971 RMK AO1
Loading
Personal Weather Stations






























Interactive Weather Map New forecast layout! Learn more

10-Day Weather Forecast

Advertisements
Track Severe Weather on mobile